Time;durP1;ratioP1;P1;durP2;ratioP2;P2;SDS_P1;SDS_P2;PMS_P1;PMS_P2;Temp;Humidity;BMP_temperature;BMP_pressure;BME280_temperature;BME280_humidity;BME280_pressure;Samples;Min_cycle;Max_cycle;Signal;HPM_P1;HPM_P2
2023/08/30 00:01:00;;;;;;;;;;;;;;;13.46;93.74;100764.91;5004900;28;20053;-77
2023/08/30 00:03:26;;;;;;;4.72;4.10;;;;;;;13.42;93.34;100761.22;5017799;28;19960;-75
2023/08/30 00:05:52;;;;;;;;;;;;;;;13.43;93.12;100752.03;5020946;28;20047;-77
2023/08/30 00:08:19;;;;;;;7.30;5.18;;;;;;;13.37;93.88;100751.31;5000572;28;19931;-79
2023/08/30 00:10:48;;;;;;;6.55;4.90;;;;;;;13.34;93.79;100752.69;4983639;28;20076;-80
2023/08/30 00:13:14;;;;;;;5.93;4.50;;;;;;;13.33;93.91;100755.66;4998619;28;20045;-77
2023/08/30 00:15:40;;;;;;;5.80;3.88;;;;;;;13.33;93.56;100752.94;4988029;28;20146;-77
2023/08/30 00:18:06;;;;;;;5.45;4.22;;;;;;;13.30;93.64;100757.03;4989679;28;20120;-79
2023/08/30 00:20:33;;;;;;;6.70;4.15;;;;;;;13.26;93.04;100739.06;4976609;28;20097;-79
2023/08/30 00:23:03;;;;;;;9.13;4.40;;;;;;;13.28;92.97;100747.66;4979168;28;20034;-78
2023/08/30 00:25:29;;;;;;;6.18;4.57;;;;;;;13.25;92.90;100749.00;4974910;28;20573;-78
2023/08/30 00:27:55;;;;;;;7.07;4.22;;;;;;;13.28;92.73;100759.22;5001674;28;20041;-78
2023/08/30 00:30:21;;;;;;;5.40;4.03;;;;;;;13.28;93.04;100759.22;4985419;28;20506;-78
2023/08/30 00:32:46;;;;;;;7.20;4.45;;;;;;;13.27;93.11;100748.72;5000009;28;20025;-77
2023/08/30 00:35:12;;;;;;;9.93;5.15;;;;;;;13.25;93.45;100757.09;4982101;28;20034;-78
2023/08/30 00:37:38;;;;;;;7.63;4.45;;;;;;;13.23;93.48;100753.09;5002997;28;21559;-76
2023/08/30 00:40:05;;;;;;;5.35;4.63;;;;;;;13.20;92.78;100759.81;4978682;28;20033;-80
2023/08/30 00:42:31;;;;;;;5.30;4.15;;;;;;;13.19;92.98;100752.03;4984865;28;20034;-76
2023/08/30 00:44:57;;;;;;;6.32;4.15;;;;;;;13.17;93.20;100752.31;5018589;28;20041;-78
2023/08/30 00:47:23;;;;;;;5.25;4.30;;;;;;;13.16;93.28;100749.91;5003468;28;20497;-78
2023/08/30 00:49:50;;;;;;;5.32;4.20;;;;;;;13.17;93.12;100741.56;5020581;28;20053;-75
2023/08/30 00:52:17;;;;;;;4.90;4.38;;;;;;;13.17;92.71;100757.69;4984141;28;20059;-78
2023/08/30 00:54:43;;;;;;;;;;;;;;;13.17;92.67;100752.31;4987100;28;20076;-79
2023/08/30 00:57:09;;;;;;;4.97;4.00;;;;;;;13.11;93.10;100746.19;4987540;28;19917;-75
2023/08/30 00:59:35;;;;;;;4.78;3.97;;;;;;;13.13;92.79;100735.13;4986789;28;20041;-76
2023/08/30 01:02:02;;;;;;;5.05;4.38;;;;;;;13.10;92.59;100736.53;4985264;28;20049;-78
2023/08/30 01:04:28;;;;;;;5.45;3.80;;;;;;;13.14;92.59;100747.53;5003791;28;20053;-75
2023/08/30 01:06:54;;;;;;;8.05;5.50;;;;;;;13.10;92.76;100735.72;4987375;28;20025;-76
2023/08/30 01:09:21;;;;;;;7.95;6.40;;;;;;;13.08;93.07;100735.22;4997299;28;20208;-78
2023/08/30 01:12:12;;;;;;;8.15;5.53;;;;;;;13.06;92.90;100734.69;5002795;28;20041;-77
2023/08/30 01:14:45;;;;;;;5.50;4.05;;;;;;;13.04;92.62;100731.50;5008796;28;20059;-78
2023/08/30 01:17:16;;;;;;;6.03;4.88;;;;;;;13.05;92.67;100739.25;5018360;28;20515;-78
2023/08/30 01:19:49;;;;;;;5.63;4.72;;;;;;;13.04;92.90;100736.88;4992766;28;20064;-78
2023/08/30 01:22:35;;;;;;;6.13;5.28;;;;;;;13.03;92.90;100735.25;4999406;28;20092;-77
2023/08/30 01:25:27;;;;;;;8.10;5.07;;;;;;;13.02;93.31;100728.28;4991154;28;20034;-78
2023/08/30 01:27:56;;;;;;;7.05;5.07;;;;;;;12.94;93.61;100720.84;4988491;28;20045;-78
2023/08/30 01:30:26;;;;;;;7.90;5.47;;;;;;;12.91;93.49;100722.22;4996220;28;20048;-76
2023/08/30 01:32:53;;;;;;;7.15;5.30;;;;;;;12.91;92.99;100718.72;4983924;28;20069;-74
2023/08/30 01:35:19;;;;;;;7.50;5.80;;;;;;;12.85;93.02;100717.97;4998143;28;20068;-75
2023/08/30 01:37:46;;;;;;;6.55;5.45;;;;;;;12.90;93.72;100719.81;4996277;28;20033;-78
2023/08/30 01:40:15;;;;;;;6.80;5.20;;;;;;;12.92;94.80;100717.63;5010492;28;20515;-77
2023/08/30 01:42:44;;;;;;;6.53;4.15;;;;;;;12.91;94.26;100706.09;5014980;28;20037;-78
2023/08/30 01:45:13;;;;;;;5.18;4.63;;;;;;;12.91;93.75;100716.03;5003525;28;20081;-77
2023/08/30 01:47:43;;;;;;;8.43;4.78;;;;;;;12.90;93.36;100714.44;4996693;28;20050;-78
2023/08/30 01:50:11;;;;;;;6.35;4.65;;;;;;;12.89;93.19;100712.84;5017839;28;20059;-78
2023/08/30 01:52:38;;;;;;;7.53;4.93;;;;;;;12.84;93.74;100705.63;4992524;28;20030;-79
2023/08/30 01:55:07;;;;;;;7.07;4.68;;;;;;;12.79;93.77;100703.00;5004040;28;20053;-80
2023/08/30 01:57:33;;;;;;;5.70;3.95;;;;;;;12.81;93.30;100706.22;5021192;28;20041;-81
2023/08/30 01:59:59;;;;;;;;;;;;;;;12.78;93.33;100702.19;5002484;28;20041;-77
2023/08/30 02:02:29;;;;;;;4.90;3.40;;;;;;;12.73;92.92;100699.53;5009894;28;19999;-79
2023/08/30 02:04:54;;;;;;;4.80;3.90;;;;;;;12.74;93.05;100705.75;4991572;28;20041;-78
2023/08/30 02:07:28;;;;;;;6.60;3.95;;;;;;;12.72;92.67;100711.38;4991162;28;20029;-78
2023/08/30 02:10:00;;;;;;;5.20;3.22;;;;;;;12.71;92.83;100717.84;5016546;28;20056;-78
2023/08/30 02:12:31;;;;;;;;;;;;;;;12.69;93.12;100709.28;5017551;28;20156;-77
2023/08/30 02:14:57;;;;;;;4.88;3.90;;;;;;;12.65;93.64;100704.75;5004178;28;19918;-77
2023/08/30 02:17:24;;;;;;;5.13;3.90;;;;;;;12.64;93.56;100701.25;4991483;28;20045;-78
2023/08/30 02:19:53;;;;;;;;;;;;;;;12.65;93.07;100700.16;4991438;28;20781;-77
2023/08/30 02:22:19;;;;;;;5.30;4.00;;;;;;;12.55;93.42;100693.03;4992308;28;20454;-78
2023/08/30 02:24:45;;;;;;;;;;;;;;;12.58;93.59;100697.81;4991046;28;20503;-78
2023/08/30 02:27:10;;;;;;;5.72;4.55;;;;;;;12.49;94.24;100694.16;4993007;28;19975;-77
2023/08/30 02:29:36;;;;;;;6.80;4.68;;;;;;;12.50;94.06;100695.75;5008745;28;20152;-76
2023/08/30 02:32:02;;;;;;;5.55;4.35;;;;;;;12.48;93.94;100692.56;4994845;28;20037;-77
2023/08/30 02:34:27;;;;;;;5.85;4.50;;;;;;;12.42;93.67;100691.00;5025144;28;20037;-78
2023/08/30 02:36:54;;;;;;;;;;;;;;;12.41;93.80;100700.16;5011236;28;20514;-76
2023/08/30 02:39:20;;;;;;;4.70;4.05;;;;;;;12.36;93.57;100692.13;5017821;28;19972;-78
2023/08/30 02:41:46;;;;;;;5.95;4.00;;;;;;;12.34;93.71;100690.81;5008990;28;20512;-77
2023/08/30 02:44:12;;;;;;;7.93;4.20;;;;;;;12.32;93.82;100695.66;4987679;28;20049;-77
2023/08/30 02:46:37;;;;;;;6.10;4.05;;;;;;;12.33;93.81;100694.56;5005878;28;20041;-78
2023/08/30 02:49:05;;;;;;;5.40;4.50;;;;;;;12.28;93.77;100696.22;5017207;28;20038;-78
2023/08/30 02:51:31;;;;;;;5.45;4.25;;;;;;;12.30;93.75;100699.41;5000331;28;20030;-79
2023/08/30 02:53:56;;;;;;;7.07;5.72;;;;;;;12.32;94.45;100703.72;5002651;28;20068;-78
2023/08/30 02:56:22;;;;;;;7.47;5.13;;;;;;;12.31;94.49;100700.22;4995803;28;20041;-79
2023/08/30 02:58:48;;;;;;;;;;;;;;;12.37;94.80;100709.84;4993504;28;20034;-79
2023/08/30 03:01:13;;;;;;;5.65;4.53;;;;;;;12.36;94.81;100705.56;4991543;28;19975;-79
2023/08/30 03:03:40;;;;;;;6.30;4.70;;;;;;;12.38;94.98;100703.38;5011378;28;20060;-79
2023/08/30 03:06:06;;;;;;;6.90;5.60;;;;;;;12.41;95.12;100702.03;4988370;28;20069;-77
2023/08/30 03:08:33;;;;;;;5.28;4.55;;;;;;;12.41;95.00;100691.28;5009856;28;20037;-79
2023/08/30 03:11:11;;;;;;;;;;;;;;;12.45;95.12;100700.38;4992474;28;20033;-78
2023/08/30 03:13:43;;;;;;;5.63;5.03;;;;;;;12.43;94.96;100700.66;4998128;28;19917;-78
2023/08/30 03:16:16;;;;;;;7.10;6.35;;;;;;;12.45;95.46;100708.44;4993460;28;20033;-78
2023/08/30 03:18:43;;;;;;;6.32;5.68;;;;;;;12.47;95.92;100688.28;5002486;28;20037;-77
2023/08/30 03:21:11;;;;;;;7.43;5.95;;;;;;;12.47;95.96;100690.16;4988824;28;20048;-79
2023/08/30 03:23:39;;;;;;;7.00;5.38;;;;;;;12.45;95.49;100697.69;5001216;28;20093;-76
2023/08/30 03:26:22;;;;;;;5.70;4.85;;;;;;;12.44;94.94;100696.09;5009297;28;20117;-78
2023/08/30 03:28:49;;;;;;;6.30;4.88;;;;;;;12.42;95.36;100701.75;4989250;28;20087;-78
2023/08/30 03:31:19;;;;;;;5.72;5.07;;;;;;;12.44;95.13;100701.47;5004228;28;20030;-79
2023/08/30 03:33:47;;;;;;;7.38;5.47;;;;;;;12.42;95.18;100691.00;4993562;28;20033;-78
2023/08/30 03:36:18;;;;;;;6.50;5.28;;;;;;;12.42;95.32;100698.25;5022734;28;20052;-76
2023/08/30 03:38:45;;;;;;;8.75;6.03;;;;;;;12.45;95.55;100698.47;4978642;28;20111;-78
2023/08/30 03:41:11;;;;;;;7.03;5.88;;;;;;;12.44;95.63;100685.34;4995705;28;20413;-78
2023/08/30 03:43:39;;;;;;;6.32;5.70;;;;;;;12.46;95.84;100688.53;4991846;28;20041;-77
2023/08/30 03:46:05;;;;;;;8.07;6.20;;;;;;;12.47;95.59;100700.91;5013902;28;20091;-79
2023/08/30 03:48:31;;;;;;;9.32;6.53;;;;;;;12.43;95.60;100678.38;5008440;28;20034;-77
2023/08/30 03:50:57;;;;;;;7.65;5.82;;;;;;;12.48;96.08;100686.38;5010587;28;20033;-78
2023/08/30 03:53:24;;;;;;;7.28;6.43;;;;;;;12.49;96.21;100679.94;5001935;28;20125;-78
2023/08/30 03:55:50;;;;;;;7.75;6.60;;;;;;;12.48;96.11;100670.28;4989427;28;20153;-78
2023/08/30 03:58:17;;;;;;;;;;;;;;;12.51;96.43;100665.13;5011441;28;20040;-77
2023/08/30 04:00:43;;;;;;;8.02;5.97;;;;;;;12.50;96.43;100662.72;5017856;28;19923;-77
2023/08/30 04:03:13;;;;;;;7.05;6.00;;;;;;;12.50;96.09;100657.34;5013995;28;20034;-79
2023/08/30 04:05:39;;;;;;;8.75;6.93;;;;;;;12.47;95.98;100660.63;4995763;28;20041;-78
2023/08/30 04:08:05;;;;;;;;;;;;;;;12.49;95.71;100659.25;5010498;28;20086;-77
2023/08/30 04:10:35;;;;;;;7.47;6.70;;;;;;;12.44;95.53;100650.44;4991559;28;19924;-80
2023/08/30 04:13:03;;;;;;;7.57;6.13;;;;;;;12.44;95.44;100653.09;5011086;28;20033;-79
2023/08/30 04:15:33;;;;;;;8.13;6.03;;;;;;;12.44;95.30;100658.47;4977898;28;20680;-78
2023/08/30 04:17:59;;;;;;;7.68;6.80;;;;;;;12.40;95.63;100646.72;4991015;28;20037;-78
2023/08/30 04:20:25;;;;;;;8.32;6.90;;;;;;;12.41;95.57;100637.56;5022822;28;20049;-78
2023/08/30 04:22:50;;;;;;;;;;;;;;;12.42;95.59;100636.50;5009653;28;20037;-77
2023/08/30 04:25:16;;;;;;;7.68;5.82;;;;;;;12.39;95.88;100645.91;4990568;28;19917;-78
2023/08/30 04:27:43;;;;;;;8.40;6.47;;;;;;;12.42;95.88;100647.22;5018394;28;20037;-78
2023/08/30 04:30:11;;;;;;;9.45;7.03;;;;;;;12.42;95.97;100644.53;5006711;28;20037;-78
2023/08/30 04:32:38;;;;;;;8.82;6.20;;;;;;;12.43;96.21;100635.41;5004582;28;20064;-80
2023/08/30 04:35:04;;;;;;;8.10;6.40;;;;;;;12.44;95.97;100634.31;4992560;28;20045;-77
2023/08/30 04:37:31;;;;;;;;;;;;;;;12.41;95.91;100641.06;4984386;28;20033;-78
2023/08/30 04:39:57;;;;;;;11.13;7.97;;;;;;;12.38;95.90;100624.69;5020345;28;19948;-78
2023/08/30 04:42:23;;;;;;;7.95;6.65;;;;;;;12.40;95.63;100635.97;4987389;28;20503;-77
2023/08/30 04:44:48;;;;;;;;;;;;;;;12.41;96.10;100637.56;5001248;28;20037;-75
2023/08/30 04:47:14;;;;;;;7.47;5.90;;;;;;;12.34;96.02;100629.84;5019410;28;20281;-79
2023/08/30 04:49:42;;;;;;;7.50;6.35;;;;;;;12.39;96.05;100627.09;4988900;28;20045;-79
2023/08/30 04:52:07;;;;;;;10.20;7.30;;;;;;;12.42;96.35;100639.19;5001641;28;20040;-78
2023/08/30 04:54:34;;;;;;;7.55;6.65;;;;;;;12.46;96.62;100629.44;5000696;28;20036;-76
2023/08/30 04:57:01;;;;;;;9.13;7.47;;;;;;;12.48;96.87;100632.66;5006482;28;20041;-78
2023/08/30 04:59:27;;;;;;;9.27;6.80;;;;;;;12.52;96.82;100639.06;5000339;28;20494;-76
2023/08/30 05:01:52;;;;;;;;;;;;;;;12.55;96.66;100641.19;5021427;28;20577;-78
2023/08/30 05:04:20;;;;;;;8.70;6.93;;;;;;;12.51;97.09;100632.88;4989390;28;19948;-77
2023/08/30 05:06:46;;;;;;;7.75;6.03;;;;;;;12.57;96.96;100647.88;5001186;28;20030;-78
2023/08/30 05:09:11;;;;;;;;;;;;;;;12.62;96.93;100638.97;5004274;28;20041;-80
2023/08/30 05:11:38;;;;;;;8.40;6.57;;;;;;;12.59;97.25;100639.50;5018857;28;19968;-76
2023/08/30 05:14:04;;;;;;;7.30;6.25;;;;;;;12.60;96.87;100635.78;4990186;28;20087;-78
2023/08/30 05:16:30;;;;;;;8.13;7.20;;;;;;;12.62;96.42;100633.59;4986976;28;20037;-80
2023/08/30 05:18:56;;;;;;;7.95;6.05;;;;;;;12.67;96.57;100632.75;5005544;28;20160;-77
2023/08/30 05:21:22;;;;;;;8.73;6.22;;;;;;;12.68;96.49;100632.44;5001894;28;20141;-78
2023/08/30 05:23:48;;;;;;;9.38;6.82;;;;;;;12.70;96.30;100634.84;5002739;28;20132;-79
2023/08/30 05:26:14;;;;;;;7.93;6.93;;;;;;;12.71;96.45;100631.88;5002886;28;20083;-79
2023/08/30 05:28:39;;;;;;;;;;;;;;;12.72;96.14;100624.59;4974896;28;20088;-79
2023/08/30 05:31:07;;;;;;;5.70;5.10;;;;;;;12.74;96.46;100625.13;4990596;28;19952;-78
2023/08/30 05:33:52;;;;;;;8.68;5.38;;;;;;;12.80;96.15;100640.91;5021411;28;20773;-78
2023/08/30 05:36:30;;;;;;;7.53;6.72;;;;;;;12.83;96.46;100634.94;5015936;28;20463;-76
2023/08/30 05:39:03;;;;;;;7.53;5.90;;;;;;;12.88;96.34;100630.63;5018805;28;20422;-77
2023/08/30 05:41:35;;;;;;;8.90;6.85;;;;;;;12.88;96.10;100631.41;5002568;28;20095;-78
2023/08/30 05:44:02;;;;;;;6.90;5.85;;;;;;;12.93;96.26;100639.41;5024659;28;20026;-76
2023/08/30 05:46:28;;;;;;;10.52;7.25;;;;;;;12.95;96.05;100631.88;4990852;28;20091;-77
2023/08/30 05:48:54;;;;;;;;;;;;;;;12.97;95.62;100640.44;5005329;28;20519;-78
2023/08/30 05:51:20;;;;;;;9.98;6.55;;;;;;;12.94;95.43;100632.97;4997456;28;20426;-78
2023/08/30 05:53:45;;;;;;;7.68;6.18;;;;;;;12.99;95.64;100629.38;4986076;28;20032;-77
2023/08/30 05:56:11;;;;;;;;;;;;;;;13.07;95.36;100634.13;5003027;28;20064;-78
2023/08/30 05:58:38;;;;;;;8.05;7.20;;;;;;;13.07;95.56;100626.06;4989426;28;19913;-77
2023/08/30 06:01:06;;;;;;;7.72;6.63;;;;;;;13.08;95.43;100624.97;4999252;28;20119;-79
2023/08/30 06:03:33;;;;;;;9.95;6.38;;;;;;;13.13;95.62;100619.53;4984296;28;20048;-76
2023/08/30 06:05:58;;;;;;;7.43;5.40;;;;;;;13.17;95.75;100620.56;4987037;28;20033;-77
2023/08/30 06:08:24;;;;;;;8.45;7.38;;;;;;;13.18;95.19;100608.69;4985890;28;20047;-79
2023/08/30 06:10:50;;;;;;;;;;;;;;;13.26;95.08;100618.84;4994143;28;20042;-78
2023/08/30 06:13:15;;;;;;;6.50;5.55;;;;;;;13.28;95.28;100608.59;4997913;28;19917;-79
2023/08/30 06:15:41;;;;;;;;;;;;;;;13.39;95.11;100610.03;4984188;28;20068;-78
2023/08/30 06:18:07;;;;;;;8.05;6.68;;;;;;;13.48;95.01;100612.91;4993382;28;19936;-77
2023/08/30 06:20:33;;;;;;;7.93;5.68;;;;;;;13.59;94.81;100603.56;4987991;28;20042;-73
2023/08/30 06:23:03;;;;;;;5.97;5.25;;;;;;;13.72;94.75;100596.63;4983423;28;20126;-77
2023/08/30 06:25:28;;;;;;;7.05;5.82;;;;;;;13.78;93.98;100594.66;4999979;28;20041;-79
2023/08/30 06:27:57;;;;;;;7.55;6.05;;;;;;;13.86;93.26;100592.09;5005669;28;20033;-76
2023/08/30 06:30:25;;;;;;;7.55;6.75;;;;;;;13.98;93.17;100605.09;4986432;28;20037;-78
2023/08/30 06:32:51;;;;;;;9.32;7.18;;;;;;;14.08;93.24;100590.66;4995958;28;20034;-76
2023/08/30 06:35:17;;;;;;;8.63;6.50;;;;;;;14.13;92.50;100596.75;5000861;28;20033;-77
2023/08/30 06:37:42;;;;;;;7.88;5.80;;;;;;;14.19;91.95;100595.56;4985451;28;20514;-78
2023/08/30 06:40:09;;;;;;;8.35;6.35;;;;;;;14.29;92.17;100594.56;5004095;28;20079;-75
2023/08/30 06:42:34;;;;;;;7.45;6.03;;;;;;;14.34;91.65;100586.41;4994053;28;20162;-77
2023/08/30 06:45:02;;;;;;;7.25;5.82;;;;;;;14.42;91.60;100585.69;5013807;28;20515;-78
2023/08/30 06:47:28;;;;;;;8.45;6.43;;;;;;;14.57;91.41;100590.03;5014388;28;20030;-77
2023/08/30 06:49:54;;;;;;;7.75;6.70;;;;;;;14.73;90.49;100594.03;5001637;28;20053;-76
2023/08/30 06:52:19;;;;;;;;;;;;;;;14.83;89.41;100587.59;4980981;28;20384;-79
2023/08/30 06:54:45;;;;;;;8.30;6.05;;;;;;;14.88;88.63;100582.13;5014065;28;20387;-74
2023/08/30 06:57:11;;;;;;;;;;;;;;;14.94;88.87;100588.22;5003218;28;20112;-76
2023/08/30 06:59:37;;;;;;;7.07;6.20;;;;;;;15.02;88.93;100579.41;4981479;28;19928;-79
2023/08/30 07:02:03;;;;;;;;;;;;;;;15.13;87.87;100579.97;5015556;28;20116;-76
2023/08/30 07:04:28;;;;;;;8.93;6.35;;;;;;;15.19;88.00;100573.38;5001625;28;19921;-77
2023/08/30 07:06:54;;;;;;;;;;;;;;;15.27;87.29;100580.75;5006374;28;20090;-74
2023/08/30 07:09:28;;;;;;;9.18;6.90;;;;;;;15.30;86.85;100580.91;5009748;28;19921;-78
2023/08/30 07:11:53;;;;;;;;;;;;;;;15.29;86.12;100583.91;5018269;28;20274;-77
2023/08/30 07:14:20;;;;;;;9.98;7.00;;;;;;;15.34;87.02;100580.31;5021034;28;19913;-79
2023/08/30 07:16:46;;;;;;;8.90;7.20;;;;;;;15.34;86.32;100580.31;5020020;28;20033;-78
2023/08/30 07:19:11;;;;;;;;;;;;;;;15.40;85.34;100581.81;4997551;28;20037;-74
2023/08/30 07:21:38;;;;;;;8.52;6.80;;;;;;;15.50;85.39;100576.94;5002729;28;19913;-76
2023/08/30 07:24:09;;;;;;;7.85;6.60;;;;;;;15.64;86.23;100568.03;5005442;28;20061;-78
2023/08/30 07:26:36;;;;;;;8.52;7.05;;;;;;;15.73;84.34;100582.38;4985475;28;20041;-77
2023/08/30 07:29:06;;;;;;;7.68;6.50;;;;;;;15.79;84.62;100570.38;5005860;28;20139;-75
2023/08/30 07:31:33;;;;;;;9.25;7.53;;;;;;;15.93;84.33;100576.47;4995815;28;20049;-77
2023/08/30 07:33:59;;;;;;;7.65;6.47;;;;;;;16.04;83.90;100572.41;5000361;28;20113;-79
2023/08/30 07:36:28;;;;;;;8.70;6.55;;;;;;;16.08;83.29;100573.38;5000590;28;20042;-77
2023/08/30 07:38:55;;;;;;;9.88;6.68;;;;;;;16.17;81.56;100575.31;5015347;28;20124;-76
2023/08/30 07:41:21;;;;;;;10.10;7.88;;;;;;;16.23;82.39;100574.06;5005218;28;20098;-77
2023/08/30 07:43:47;;;;;;;;;;;;;;;16.32;82.43;100580.31;5006295;28;20481;-77
2023/08/30 07:46:12;;;;;;;8.07;6.57;;;;;;;16.32;81.88;100566.78;4997609;28;20285;-77
2023/08/30 07:48:38;;;;;;;9.13;7.85;;;;;;;16.43;82.03;100583.53;4994967;28;20075;-78
2023/08/30 07:51:04;;;;;;;8.43;6.13;;;;;;;16.55;82.43;100581.84;4997919;28;20041;-73
2023/08/30 07:53:31;;;;;;;8.57;6.47;;;;;;;16.69;82.15;100586.34;5016481;28;20030;-77
2023/08/30 07:55:57;;;;;;;7.20;6.22;;;;;;;16.79;82.02;100588.75;5005221;28;20518;-77
2023/08/30 07:58:23;;;;;;;;;;;;;;;16.82;79.91;100585.44;4997552;28;20072;-75
2023/08/30 08:00:53;;;;;;;11.90;7.30;;;;;;;16.85;79.80;100580.19;5012479;28;19929;-77
2023/08/30 08:03:21;;;;;;;11.68;8.02;;;;;;;16.96;80.27;100590.72;5019157;28;20029;-79
2023/08/30 08:05:47;;;;;;;12.18;7.00;;;;;;;17.02;79.81;100565.91;5002776;28;20120;-78
2023/08/30 08:08:14;;;;;;;9.43;6.55;;;;;;;17.11;80.21;100582.94;4996786;28;20415;-78
2023/08/30 08:10:41;;;;;;;11.15;9.35;;;;;;;17.14;79.19;100576.91;5002190;28;20038;-75
2023/08/30 08:13:07;;;;;;;10.50;7.45;;;;;;;17.24;78.65;100581.19;5002924;28;20040;-78
2023/08/30 08:15:34;;;;;;;8.52;7.35;;;;;;;17.25;78.24;100576.56;5015068;28;20668;-77
2023/08/30 08:18:03;;;;;;;8.95;8.05;;;;;;;17.33;79.64;100586.59;5002349;28;20067;-78
2023/08/30 08:20:30;;;;;;;9.65;8.18;;;;;;;17.35;77.48;100590.59;5000182;28;20415;-75
2023/08/30 08:22:56;;;;;;;12.45;8.55;;;;;;;17.44;77.43;100579.78;4979794;28;20030;-77
2023/08/30 08:25:23;;;;;;;12.73;8.88;;;;;;;17.49;78.55;100582.31;5005845;28;20560;-80
2023/08/30 08:27:50;;;;;;;11.13;7.78;;;;;;;17.52;78.13;100580.88;5004611;28;20040;-77
2023/08/30 08:30:16;;;;;;;12.02;8.80;;;;;;;17.55;77.35;100585.66;4984680;28;20052;-78
2023/08/30 08:32:42;;;;;;;10.95;9.23;;;;;;;17.55;77.42;100591.09;4980839;28;20041;-78
2023/08/30 08:35:08;;;;;;;10.88;8.57;;;;;;;17.64;77.30;100589.94;4986899;28;20612;-78
2023/08/30 08:37:33;;;;;;;11.90;8.55;;;;;;;17.69;78.16;100586.28;4984168;28;20438;-74
2023/08/30 08:39:59;;;;;;;;;;;;;;;17.76;76.07;100585.81;4999540;28;20044;-77
2023/08/30 08:42:27;;;;;;;12.75;8.10;;;;;;;17.82;75.83;100589.97;5001625;28;19916;-78
2023/08/30 08:44:56;;;;;;;9.73;7.28;;;;;;;17.90;76.13;100583.72;5004490;28;20041;-78
2023/08/30 08:47:22;;;;;;;12.07;7.82;;;;;;;17.93;76.38;100588.47;5019861;28;20111;-78
2023/08/30 08:49:49;;;;;;;11.80;7.85;;;;;;;17.94;74.99;100590.06;4995100;28;20029;-74
2023/08/30 08:52:15;;;;;;;11.75;8.02;;;;;;;17.97;75.61;100592.16;4996017;28;20039;-77
2023/08/30 08:54:43;;;;;;;10.50;8.82;;;;;;;17.93;74.75;100586.56;5020341;28;20037;-77
2023/08/30 08:57:09;;;;;;;11.25;6.95;;;;;;;17.92;74.47;100584.19;4980881;28;20040;-78
2023/08/30 08:59:35;;;;;;;11.43;8.90;;;;;;;17.90;75.78;100586.44;4997897;28;20037;-75
2023/08/30 09:02:02;;;;;;;9.73;7.05;;;;;;;17.93;76.37;100589.28;5012269;28;20096;-77
2023/08/30 09:04:31;;;;;;;10.80;7.68;;;;;;;17.94;75.61;100587.38;4998124;28;20033;-78
2023/08/30 09:06:59;;;;;;;11.02;7.60;;;;;;;17.97;74.16;100597.56;4989013;28;20433;-78
2023/08/30 09:09:26;;;;;;;9.00;7.85;;;;;;;17.97;75.23;100594.88;4997762;28;20669;-79
2023/08/30 09:11:51;;;;;;;12.05;8.10;;;;;;;18.01;74.64;100599.28;5016769;28;20692;-78
2023/08/30 09:14:18;;;;;;;8.63;7.55;;;;;;;18.06;74.19;100590.22;5017507;28;20025;-79
2023/08/30 09:17:05;;;;;;;9.60;7.38;;;;;;;18.07;74.12;100591.78;4985218;28;20037;-79
2023/08/30 09:19:31;;;;;;;8.05;6.75;;;;;;;18.04;74.28;100597.06;4998397;28;20119;-79
2023/08/30 09:22:00;;;;;;;8.13;5.85;;;;;;;18.01;72.87;100587.66;5015226;28;20037;-78
2023/08/30 09:24:39;;;;;;;7.78;6.90;;;;;;;18.10;73.32;100591.16;5005469;28;20025;-77
2023/08/30 09:27:07;;;;;;;8.57;7.00;;;;;;;18.17;73.89;100596.88;4985754;28;20120;-77
2023/08/30 09:29:33;;;;;;;9.48;6.10;;;;;;;18.20;72.99;100590.78;4979054;28;20124;-76
2023/08/30 09:32:02;;;;;;;9.10;6.00;;;;;;;18.22;70.22;100591.28;5018486;28;20120;-77
2023/08/30 09:34:28;;;;;;;7.68;4.75;;;;;;;18.24;71.00;100594.47;5003186;28;20108;-77
2023/08/30 09:36:55;;;;;;;5.68;4.85;;;;;;;18.23;72.86;100583.94;5004408;28;20786;-78
2023/08/30 09:39:21;;;;;;;7.40;5.28;;;;;;;18.26;72.58;100581.38;5015342;28;20026;-78
2023/08/30 09:41:49;;;;;;;7.63;6.03;;;;;;;18.27;70.19;100588.38;4985173;28;20040;-77
2023/08/30 09:44:18;;;;;;;6.25;4.43;;;;;;;18.28;70.85;100592.66;4999026;28;20036;-79
2023/08/30 09:46:52;;;;;;;8.63;6.72;;;;;;;18.20;69.17;100588.09;4998668;28;20082;-79
2023/08/30 09:49:21;;;;;;;7.32;5.68;;;;;;;18.18;70.99;100593.03;5004243;28;20094;-78
2023/08/30 09:51:47;;;;;;;8.05;6.38;;;;;;;18.21;71.59;100586.97;4998008;28;20040;-79
2023/08/30 09:54:28;;;;;;;6.82;4.93;;;;;;;18.18;73.42;100584.91;5005601;28;20079;-77
2023/08/30 09:56:55;;;;;;;8.65;5.95;;;;;;;18.18;72.87;100584.91;4996728;28;20498;-77
2023/08/30 09:59:22;;;;;;;8.05;6.05;;;;;;;18.16;71.85;100579.03;5002689;28;20045;-79
2023/08/30 10:01:48;;;;;;;9.15;5.72;;;;;;;18.15;73.17;100588.25;4980405;28;20061;-76
2023/08/30 10:04:15;;;;;;;6.13;4.70;;;;;;;18.14;73.45;100578.53;4983860;28;20100;-79
2023/08/30 10:06:41;;;;;;;8.77;6.63;;;;;;;18.06;71.95;100565.03;5025707;28;20038;-79
2023/08/30 10:09:08;;;;;;;7.05;5.22;;;;;;;18.10;74.52;100568.69;5013937;28;20065;-78
2023/08/30 10:11:36;;;;;;;8.50;5.90;;;;;;;18.10;74.17;100574.09;4998905;28;20030;-77
2023/08/30 10:14:06;;;;;;;8.32;5.00;;;;;;;18.09;72.78;100567.91;5003465;28;20450;-79
2023/08/30 10:16:42;;;;;;;6.00;4.80;;;;;;;18.18;74.03;100576.78;5003878;28;20030;-78
2023/08/30 10:19:14;;;;;;;6.85;4.88;;;;;;;18.22;73.56;100577.72;5009108;28;20114;-79
2023/08/30 10:21:44;;;;;;;8.73;5.55;;;;;;;18.20;71.76;100577.25;4994961;28;20071;-76
2023/08/30 10:24:14;;;;;;;7.10;5.38;;;;;;;18.23;71.52;100573.91;4996992;28;20049;-75
2023/08/30 10:26:44;;;;;;;7.07;4.75;;;;;;;18.30;72.62;100578.03;5001284;28;20050;-76
2023/08/30 10:29:12;;;;;;;7.35;4.80;;;;;;;18.31;72.51;100563.34;5015016;28;20037;-76
2023/08/30 10:31:39;;;;;;;5.47;4.10;;;;;;;18.32;69.97;100575.78;4983902;28;20041;-77
2023/08/30 10:34:17;;;;;;;6.85;4.00;;;;;;;18.30;71.84;100564.47;4998304;28;20072;-75
2023/08/30 10:36:44;;;;;;;6.85;3.90;;;;;;;18.34;69.52;100565.38;4980884;28;20478;-78
2023/08/30 10:39:14;;;;;;;5.50;3.13;;;;;;;18.38;68.88;100563.63;4979096;28;20053;-78
2023/08/30 10:41:56;;;;;;;5.50;3.05;;;;;;;18.42;68.87;100564.56;4985490;28;20403;-77
2023/08/30 10:44:23;;;;;;;6.00;3.70;;;;;;;18.45;68.91;100563.91;5000114;28;20040;-74
2023/08/30 10:46:53;;;;;;;6.03;4.30;;;;;;;18.53;70.16;100571.22;4987063;28;20128;-76
2023/08/30 10:49:21;;;;;;;5.43;3.72;;;;;;;18.63;68.94;100570.03;5001565;28;20038;-78
2023/08/30 10:51:56;;;;;;;6.07;4.07;;;;;;;18.84;67.15;100570.91;4994301;28;20045;-78
2023/08/30 10:54:23;;;;;;;5.03;3.58;;;;;;;18.96;65.50;100562.03;5006087;28;20033;-77
2023/08/30 10:56:52;;;;;;;5.15;3.50;;;;;;;19.07;66.62;100561.31;4986284;28;20175;-77
2023/08/30 10:59:22;;;;;;;6.25;4.20;;;;;;;19.16;65.31;100566.66;5001418;28;20558;-76
2023/08/30 11:01:51;;;;;;;5.60;3.83;;;;;;;19.31;65.83;100562.59;5016581;28;20084;-77
2023/08/30 11:04:18;;;;;;;5.13;3.65;;;;;;;19.21;65.21;100558.34;5004471;28;20034;-73
2023/08/30 11:06:45;;;;;;;6.78;3.60;;;;;;;19.26;67.92;100560.06;5000385;28;20045;-78
2023/08/30 11:09:21;;;;;;;5.43;3.33;;;;;;;19.19;68.16;100557.09;5020904;28;20394;-79
2023/08/30 11:11:49;;;;;;;7.75;4.68;;;;;;;19.02;65.43;100558.00;5017562;28;20213;-75
2023/08/30 11:14:16;;;;;;;6.45;3.95;;;;;;;19.14;64.86;100552.66;4999229;28;20030;-77
2023/08/30 11:16:43;;;;;;;6.05;3.38;;;;;;;19.22;65.24;100553.69;5000590;28;20033;-77
2023/08/30 11:19:11;;;;;;;3.67;2.83;;;;;;;19.36;65.59;100548.78;5005098;28;20476;-77
2023/08/30 11:21:39;;;;;;;4.95;3.40;;;;;;;19.38;68.20;100545.75;4989756;28;20048;-76
2023/08/30 11:24:06;;;;;;;6.47;3.83;;;;;;;19.24;66.02;100541.41;5019321;28;20087;-77
2023/08/30 11:26:33;;;;;;;5.35;3.13;;;;;;;19.14;63.63;100539.06;4986571;28;20041;-79
2023/08/30 11:29:05;;;;;;;5.68;3.35;;;;;;;19.21;66.65;100541.25;5003604;28;20560;-76
2023/08/30 11:31:32;;;;;;;4.32;3.05;;;;;;;19.22;64.34;100543.63;4998971;28;20034;-78
2023/08/30 11:34:00;;;;;;;6.00;3.30;;;;;;;19.19;63.36;100548.94;5022454;28;20038;-79